Gas City, IN (46933)

7:41 AM EST on November 21, 2014 (GMT -0500)
KB9CQZ Brinker Heights | Change Station
CLOSE
Current Station
Personal Weather Station
Location: Marion, IN
Elevation: 890 ft
Nearby Weather Stations
Active Advisory: Special Statement

Elev 890 ft 40.57 °N, 85.64 °W | Updated 10 seconds ago

Partly Cloudy
Partly Cloudy
10.4 °F
Feels Like 10 °F
N
0.0
Wind Variable Wind from North
Gusts 0.0 mph

Today
High -- | Low -- °F
--% Chance of Precip.
Yesterday
High -- | Low -- °F
Precip. -- in
7:35 AM 5:20 PM
Waning Crescent, 1% visible
Pressure 30.43 in
Visibility 10.0 miles
Clouds Clear
Windchill 10 °F
Dew Point 7 °F
Humidity 86%
Rainfall 0.00 in
Snow Depth Not available.
UV 0.0 out of 12
Pollen .10 out of 12
Air Quality Not available.
Flu Activity Not available.
METAR KMZZ 211215Z AUTO 22004KT 10SM CLR M14/M17 A3043 RMK AO2 T11381166

More Conditions Fewer Conditions

Pressure 30.43 in
Visibility 10.0 miles
Clouds Clear
Windchill 10 °F
Dew Point 7 °F
Humidity 86%
Rainfall 0.00 in
Snow Depth Not available.
UV 0.0 out of 12
Pollen .10 out of 12
Air Quality Not available.
Flu Activity Not available.
METAR KMZZ 211215Z AUTO 22004KT 10SM CLR M14/M17 A3043 RMK AO2 T11381166

More Conditions Fewer Conditions

10-Day Weather Forecast

Almanac

Astronomy

Nov. 21, 2014 Rise Set
Actual Time
Civil Twilight
Nautical Twilight
Astronomical Twilight
Moon
Length of Visible Light
Length of Day
Tomorrow will be .
, % of the Moon is Illuminated

Today's Extremes

State Highs State Lows

Community

WunderPhotos

Upload Photos

1,772,655 photos uploaded!

WunderBlogs® & News

Nearby

Air Quality

  Air Quality AQ Index Pollutant
Not available.

Snow Depth

Station Depth Elevation

Earthquake Activity

City Distance Mag. Time & Date
Minimum magnitude displayed is 2.5.

Coastal Water Temperatures

Place Temperature

Nearby Weather Stations